Time;durP1;ratioP1;P1;durP2;ratioP2;P2;SDS_P1;SDS_P2;PMS_P1;PMS_P2;Temp;Humidity;BMP_temperature;BMP_pressure;BME280_temperature;BME280_humidity;BME280_pressure;Samples;Min_cycle;Max_cycle;Signal;HPM_P1;HPM_P2
2022/09/15 00:01:29;;;;;;;3.13;2.83;;;20.90;59.80;;;;;;4932513;29;20484;-54
2022/09/15 00:03:58;;;;;;;3.70;3.37;;;20.90;59.90;;;;;;4918423;29;20428;-54
2022/09/15 00:06:28;;;;;;;2.93;2.73;;;20.90;59.80;;;;;;4908127;29;20511;-53
2022/09/15 00:08:58;;;;;;;4.17;3.13;;;20.90;59.80;;;;;;4934507;29;20452;-54
2022/09/15 00:11:28;;;;;;;4.37;3.80;;;20.90;59.80;;;;;;4913829;29;20543;-53
2022/09/15 00:14:00;;;;;;;3.23;2.80;;;20.80;59.80;;;;;;4918469;29;20441;-54
2022/09/15 00:16:30;;;;;;;3.53;3.17;;;20.90;59.80;;;;;;4917249;29;20856;-53
2022/09/15 00:18:59;;;;;;;3.97;3.47;;;20.90;59.80;;;;;;4917941;29;20443;-54
2022/09/15 00:21:31;;;;;;;4.17;3.60;;;20.80;59.70;;;;;;4931723;28;20483;-55
2022/09/15 00:24:01;;;;;;;4.23;3.83;;;20.80;59.70;;;;;;4917740;29;20462;-54
2022/09/15 00:26:30;;;;;;;3.60;3.13;;;20.80;59.70;;;;;;4909974;29;20499;-53
2022/09/15 00:29:00;;;;;;;4.77;3.40;;;20.80;59.70;;;;;;4917808;29;20433;-54
2022/09/15 00:31:30;;;;;;;4.10;3.80;;;20.80;59.70;;;;;;4932985;28;20483;-54
2022/09/15 00:34:01;;;;;;;3.57;3.23;;;20.80;59.70;;;;;;4916710;29;20488;-53
2022/09/15 00:36:31;;;;;;;3.03;2.70;;;20.80;59.70;;;;;;4932459;28;20567;-54
2022/09/15 00:39:00;;;;;;;4.70;3.40;;;20.80;59.80;;;;;;4933834;29;21000;-54
2022/09/15 00:41:28;;;;;;;3.00;2.70;;;20.80;59.70;;;;;;4910110;29;20572;-54
2022/09/15 00:43:59;;;;;;;2.93;2.60;;;20.80;59.80;;;;;;4917628;29;20476;-54
2022/09/15 00:46:30;;;;;;;3.97;3.57;;;20.80;59.70;;;;;;4932185;29;20472;-53
2022/09/15 00:49:04;;;;;;;4.10;3.77;;;20.80;59.70;;;;;;4898064;29;20460;-54
2022/09/15 00:51:38;;;;;;;3.00;2.73;;;20.80;61.00;;;;;;4932840;29;20456;-54
2022/09/15 00:54:12;;;;;;;3.27;2.97;;;20.80;59.80;;;;;;4932894;29;20437;-54
2022/09/15 00:56:44;;;;;;;3.97;3.57;;;20.80;59.80;;;;;;4929850;29;20464;-54
2022/09/15 00:59:16;;;;;;;3.47;3.20;;;20.80;59.80;;;;;;4917816;29;20452;-54
2022/09/15 01:01:47;;;;;;;4.20;3.80;;;20.80;59.70;;;;;;4917804;29;20940;-54
2022/09/15 01:04:16;;;;;;;4.47;3.40;;;20.80;59.70;;;;;;4917951;29;20468;-54
2022/09/15 01:06:52;;;;;;;3.77;3.40;;;20.80;59.80;;;;;;4914238;29;20453;-54
2022/09/15 01:09:24;;;;;;;3.70;3.40;;;20.80;59.90;;;;;;4917003;29;20455;-54
2022/09/15 01:11:53;;;;;;;4.23;3.83;;;20.80;59.80;;;;;;4911419;29;20448;-54
2022/09/15 01:14:21;;;;;;;3.50;3.20;;;20.80;61.00;;;;;;4916528;29;20449;-53
2022/09/15 01:16:56;;;;;;;3.53;3.23;;;20.80;59.80;;;;;;4933173;29;20457;-54
2022/09/15 01:19:54;;;;;;;3.03;2.70;;;20.80;59.70;;;;;;4916097;29;20444;-54
2022/09/15 01:22:34;;;;;;;4.43;2.97;;;20.70;59.70;;;;;;4931607;29;20491;-53
2022/09/15 01:25:08;;;;;;;3.30;3.00;;;20.70;59.70;;;;;;4916731;29;20994;-54
2022/09/15 01:28:18;;;;;;;2.73;2.53;;;20.80;59.70;;;;;;4924550;29;20448;-54
2022/09/15 01:30:55;;;;;;;5.63;2.80;;;20.70;59.70;;;;;;4933236;29;20476;-53
2022/09/15 01:33:31;;;;;;;3.20;2.90;;;20.70;59.60;;;;;;4917711;29;20971;-54
2022/09/15 01:36:05;;;;;;;3.00;2.80;;;20.70;59.70;;;;;;4924388;29;20539;-54
2022/09/15 01:38:41;;;;;;;3.27;3.07;;;20.70;59.70;;;;;;4932550;29;21072;-54
2022/09/15 01:41:16;;;;;;;3.57;2.77;;;20.70;59.70;;;;;;4929717;28;20484;-52
2022/09/15 01:43:51;;;;;;;4.10;3.70;;;20.70;59.70;;;;;;4928696;29;20474;-54
2022/09/15 01:46:25;;;;;;;2.83;2.63;;;20.70;59.60;;;;;;4931181;29;20463;-53
2022/09/15 01:48:56;;;;;;;2.50;2.30;;;20.70;59.80;;;;;;4930976;29;20789;-54
2022/09/15 01:51:27;;;;;;;3.37;3.00;;;20.70;59.60;;;;;;4916012;29;20515;-54
2022/09/15 01:53:56;;;;;;;2.10;2.00;;;20.70;59.70;;;;;;4915452;29;20445;-54
2022/09/15 01:56:25;;;;;;;2.80;2.60;;;20.70;59.70;;;;;;4912031;29;20476;-54
2022/09/15 01:58:54;;;;;;;6.27;3.20;;;20.70;59.60;;;;;;4932774;29;20924;-54
2022/09/15 02:01:30;;;;;;;4.13;2.77;;;20.70;59.70;;;;;;4915617;29;20569;-53
2022/09/15 02:04:04;;;;;;;2.40;2.20;;;20.70;59.70;;;;;;4916198;29;20838;-54
2022/09/15 02:06:38;;;;;;;2.80;2.40;;;20.70;59.70;;;;;;4907407;29;20476;-53
2022/09/15 02:09:13;;;;;;;3.40;2.63;;;20.70;59.70;;;;;;4916743;29;20847;-53
2022/09/15 02:11:52;;;;;;;3.60;2.60;;;20.70;59.70;;;;;;4891649;29;20531;-54
2022/09/15 02:14:32;;;;;;;2.90;2.17;;;20.70;59.60;;;;;;4915438;29;20652;-54
2022/09/15 02:17:04;;;;;;;4.17;2.40;;;20.70;59.60;;;;;;4915985;29;20970;-54
2022/09/15 02:19:39;;;;;;;2.90;2.50;;;20.70;59.60;;;;;;4922152;29;20491;-54
2022/09/15 02:22:14;;;;;;;3.13;2.80;;;20.60;59.50;;;;;;4928961;29;20949;-54
2022/09/15 02:24:48;;;;;;;3.40;1.90;;;20.60;59.60;;;;;;4924931;29;20523;-53
2022/09/15 02:27:26;;;;;;;3.60;2.70;;;20.70;59.60;;;;;;4908280;29;20983;-54
2022/09/15 02:30:02;;;;;;;3.00;2.70;;;20.60;59.40;;;;;;4915586;29;21026;-53
2022/09/15 02:32:35;;;;;;;2.57;2.37;;;20.60;59.50;;;;;;4916351;29;20444;-54
2022/09/15 02:35:07;;;;;;;4.50;2.90;;;20.60;59.50;;;;;;4898803;29;20476;-54
2022/09/15 02:37:37;;;;;;;4.30;2.40;;;20.60;59.40;;;;;;4924209;29;20428;-54
2022/09/15 02:40:07;;;;;;;2.90;2.70;;;20.60;59.50;;;;;;4915224;29;20492;-54
2022/09/15 02:42:38;;;;;;;3.53;3.23;;;20.60;59.40;;;;;;4920023;29;20509;-54
2022/09/15 02:45:07;;;;;;;2.40;2.20;;;20.60;59.40;;;;;;4927678;29;20456;-54
2022/09/15 02:47:37;;;;;;;3.13;2.90;;;20.60;59.40;;;;;;4914894;29;20963;-55
2022/09/15 02:50:07;;;;;;;3.80;3.50;;;20.60;59.50;;;;;;4914828;29;20453;-54
2022/09/15 02:52:35;;;;;;;2.67;2.47;;;20.60;59.40;;;;;;4924376;29;20428;-54
2022/09/15 02:55:04;;;;;;;2.90;2.70;;;20.60;59.40;;;;;;4915616;29;20460;-54
2022/09/15 02:57:33;;;;;;;2.50;2.27;;;20.60;59.50;;;;;;4924400;29;20448;-54
2022/09/15 03:00:14;;;;;;;3.10;2.80;;;20.60;59.50;;;;;;4900138;29;20441;-53
2022/09/15 03:02:47;;;;;;;3.03;2.50;;;20.60;59.50;;;;;;4924845;29;20444;-53
2022/09/15 03:05:17;;;;;;;3.17;2.83;;;20.60;59.50;;;;;;4911271;29;20464;-54
2022/09/15 03:07:46;;;;;;;3.40;3.10;;;20.60;59.50;;;;;;4916015;29;20449;-54
2022/09/15 03:10:15;;;;;;;4.53;3.50;;;20.60;59.50;;;;;;4914636;29;20523;-54
2022/09/15 03:12:45;;;;;;;3.00;2.70;;;20.60;59.50;;;;;;4924988;29;20448;-54
2022/09/15 03:15:15;;;;;;;3.17;2.87;;;20.50;59.40;;;;;;4928516;29;21069;-53
2022/09/15 03:17:46;;;;;;;4.73;3.67;;;20.50;59.30;;;;;;4916068;29;20436;-53
2022/09/15 03:20:17;;;;;;;4.07;3.60;;;20.50;59.40;;;;;;4924915;29;20449;-54
2022/09/15 03:22:45;;;;;;;4.37;3.63;;;20.50;59.40;;;;;;4915923;29;20937;-54
2022/09/15 03:25:14;;;;;;;6.30;3.60;;;20.60;59.40;;;;;;4913872;29;20496;-54
2022/09/15 03:27:42;;;;;;;3.53;3.23;;;20.50;59.30;;;;;;4921542;29;20456;-54
2022/09/15 03:30:12;;;;;;;3.40;3.10;;;20.50;59.40;;;;;;4929766;29;20452;-54
2022/09/15 03:32:40;;;;;;;5.47;3.10;;;20.50;59.30;;;;;;4915561;29;20453;-54
2022/09/15 03:35:10;;;;;;;3.50;2.80;;;20.50;59.30;;;;;;4927015;29;20477;-54
2022/09/15 03:37:39;;;;;;;3.90;3.50;;;20.50;59.40;;;;;;4927132;29;20499;-54
2022/09/15 03:40:09;;;;;;;2.67;2.47;;;20.50;59.40;;;;;;4934723;29;20492;-54
2022/09/15 03:42:38;;;;;;;2.80;2.47;;;20.50;59.40;;;;;;4926655;29;20523;-54
2022/09/15 03:45:07;;;;;;;3.53;3.23;;;20.50;59.30;;;;;;4918217;29;20480;-53
2022/09/15 03:47:36;;;;;;;3.23;2.93;;;20.50;59.40;;;;;;4933957;29;20543;-54
2022/09/15 03:50:05;;;;;;;4.37;3.50;;;20.50;59.40;;;;;;4925712;29;20512;-54
2022/09/15 03:52:35;;;;;;;3.17;2.97;;;20.50;59.40;;;;;;4918368;29;20436;-54
2022/09/15 03:55:04;;;;;;;3.70;3.03;;;20.50;59.30;;;;;;4918677;29;21031;-54
2022/09/15 03:57:32;;;;;;;3.17;2.90;;;20.50;59.40;;;;;;4911028;29;20445;-54
2022/09/15 04:00:01;;;;;;;4.67;2.83;;;20.40;59.20;;;;;;4918963;29;20988;-53
2022/09/15 04:02:34;;;;;;;5.00;4.57;;;20.40;59.20;;;;;;4935255;29;20440;-54
2022/09/15 04:05:02;;;;;;;4.77;4.30;;;20.40;59.20;;;;;;4916501;29;20980;-54
2022/09/15 04:07:31;;;;;;;4.30;3.80;;;20.40;59.30;;;;;;4918370;29;20499;-54
2022/09/15 04:10:01;;;;;;;4.50;4.10;;;20.40;59.30;;;;;;4903005;29;20452;-54
2022/09/15 04:12:31;;;;;;;4.27;3.87;;;20.40;60.00;;;;;;4910640;29;20448;-54
2022/09/15 04:14:59;;;;;;;4.43;4.07;;;20.40;59.30;;;;;;4902335;29;20885;-54
2022/09/15 04:17:28;;;;;;;4.70;4.03;;;20.40;59.30;;;;;;4917913;29;21011;-54
2022/09/15 04:19:57;;;;;;;4.17;3.87;;;20.40;59.40;;;;;;4926748;29;20472;-54
2022/09/15 04:22:26;;;;;;;4.67;4.10;;;20.40;59.40;;;;;;4932660;29;20436;-54
2022/09/15 04:24:54;;;;;;;5.77;5.27;;;20.40;59.30;;;;;;4918002;29;20483;-54
2022/09/15 04:27:24;;;;;;;5.70;5.00;;;20.40;59.30;;;;;;4914392;29;20459;-54
2022/09/15 04:29:53;;;;;;;5.90;5.27;;;20.40;59.30;;;;;;4917614;29;20555;-53
2022/09/15 04:32:21;;;;;;;5.77;5.00;;;20.40;59.30;;;;;;4935821;29;20508;-54
2022/09/15 04:34:50;;;;;;;5.77;5.17;;;20.40;59.30;;;;;;4916003;29;20476;-54
2022/09/15 04:37:18;;;;;;;4.87;4.47;;;20.40;59.30;;;;;;4918052;29;20444;-54
2022/09/15 04:39:47;;;;;;;5.70;4.90;;;20.40;59.20;;;;;;4918211;29;20574;-54
2022/09/15 04:42:16;;;;;;;5.13;4.60;;;20.40;59.20;;;;;;4925547;29;20531;-54
2022/09/15 04:44:46;;;;;;;5.60;4.80;;;20.40;59.20;;;;;;4918178;29;20528;-54
2022/09/15 04:47:14;;;;;;;5.20;4.70;;;20.40;59.10;;;;;;4901151;29;20444;-54
2022/09/15 04:49:43;;;;;;;4.90;4.40;;;20.40;59.20;;;;;;4902118;29;20503;-54
2022/09/15 04:52:11;;;;;;;5.37;4.87;;;20.40;59.20;;;;;;4930802;29;20433;-53
2022/09/15 04:54:40;;;;;;;5.90;5.40;;;20.40;59.20;;;;;;4933351;29;20468;-54
2022/09/15 04:57:09;;;;;;;5.33;4.83;;;20.30;59.10;;;;;;4925552;29;20448;-54
2022/09/15 04:59:38;;;;;;;5.30;4.80;;;20.30;59.10;;;;;;4927908;29;20460;-55
2022/09/15 05:02:08;;;;;;;3.67;3.23;;;20.30;59.10;;;;;;4918003;29;20845;-54
2022/09/15 05:04:36;;;;;;;5.50;5.00;;;20.30;59.10;;;;;;4929221;29;20543;-54
2022/09/15 05:07:05;;;;;;;4.53;4.13;;;20.30;59.10;;;;;;4913867;29;20436;-55
2022/09/15 05:09:33;;;;;;;8.27;4.37;;;20.30;59.10;;;;;;4916988;29;20444;-53
2022/09/15 05:12:02;;;;;;;4.53;4.13;;;20.30;59.10;;;;;;4922792;29;20452;-55
2022/09/15 05:14:31;;;;;;;5.33;4.83;;;20.30;59.20;;;;;;4931014;29;20462;-55
2022/09/15 05:16:59;;;;;;;6.53;4.50;;;20.30;59.10;;;;;;4930186;29;20435;-53
2022/09/15 05:19:29;;;;;;;4.70;4.30;;;20.30;59.20;;;;;;4932851;29;20543;-52
2022/09/15 05:21:58;;;;;;;5.27;4.80;;;20.30;59.20;;;;;;4908852;29;20452;-53
2022/09/15 05:24:26;;;;;;;5.80;5.20;;;20.30;59.10;;;;;;4916667;29;20563;-54
2022/09/15 05:26:55;;;;;;;6.57;4.77;;;20.30;59.20;;;;;;4911154;29;20464;-54
2022/09/15 05:29:24;;;;;;;5.37;4.87;;;20.30;59.20;;;;;;4916389;29;20440;-55
2022/09/15 05:31:52;;;;;;;5.17;4.60;;;20.30;59.10;;;;;;4917023;29;20475;-54
2022/09/15 05:34:22;;;;;;;5.53;5.03;;;20.30;59.20;;;;;;4916902;29;20456;-54
2022/09/15 05:36:52;;;;;;;5.10;4.50;;;20.30;59.10;;;;;;4929133;29;20444;-55
2022/09/15 05:39:21;;;;;;;3.83;3.50;;;20.30;59.10;;;;;;4932127;29;20437;-55
2022/09/15 05:41:49;;;;;;;4.93;4.43;;;20.30;59.10;;;;;;4927886;29;20825;-54
2022/09/15 05:44:20;;;;;;;5.50;5.00;;;20.30;59.20;;;;;;4930020;29;20941;-54
2022/09/15 05:46:49;;;;;;;5.60;5.10;;;20.30;59.20;;;;;;4921571;29;20813;-54
2022/09/15 05:49:17;;;;;;;5.27;4.77;;;20.30;59.10;;;;;;4916881;29;20445;-54
2022/09/15 05:51:46;;;;;;;5.67;4.40;;;20.30;59.20;;;;;;4911251;29;20495;-54
2022/09/15 05:54:16;;;;;;;6.07;5.07;;;20.20;59.10;;;;;;4916054;29;20960;-53
2022/09/15 05:56:44;;;;;;;5.80;5.17;;;20.20;59.60;;;;;;4908832;29;20460;-54
2022/09/15 05:59:13;;;;;;;5.60;4.90;;;20.20;59.10;;;;;;4916172;29;20444;-55
2022/09/15 06:01:41;;;;;;;6.30;5.70;;;20.20;59.20;;;;;;4915875;29;20453;-55
2022/09/15 06:04:11;;;;;;;6.50;5.90;;;20.20;59.10;;;;;;4915591;29;20464;-54
2022/09/15 06:06:39;;;;;;;6.23;5.60;;;20.20;59.10;;;;;;4898964;29;20551;-54
2022/09/15 06:09:08;;;;;;;5.00;4.50;;;20.20;59.10;;;;;;4933856;29;20444;-55
2022/09/15 06:11:38;;;;;;;5.07;4.67;;;20.20;59.10;;;;;;4923003;29;20606;-54
2022/09/15 06:14:06;;;;;;;4.77;4.37;;;20.20;59.10;;;;;;4916418;29;20456;-54
2022/09/15 06:16:35;;;;;;;4.10;3.80;;;20.20;59.10;;;;;;4915310;29;20480;-54
2022/09/15 06:19:04;;;;;;;5.90;5.33;;;20.20;59.10;;;;;;4916913;29;20447;-54
2022/09/15 06:21:33;;;;;;;5.70;4.57;;;20.20;59.10;;;;;;4927927;29;20726;-55
2022/09/15 06:24:05;;;;;;;6.00;5.50;;;20.20;59.10;;;;;;4923846;29;20436;-53
2022/09/15 06:26:34;;;;;;;6.10;5.20;;;20.20;59.20;;;;;;4913401;29;20482;-55
2022/09/15 06:29:06;;;;;;;6.03;5.43;;;20.20;59.20;;;;;;4932310;29;20437;-54
2022/09/15 06:31:35;;;;;;;5.70;5.10;;;20.20;59.20;;;;;;4932189;29;20468;-54
2022/09/15 06:34:04;;;;;;;6.63;5.93;;;20.20;59.20;;;;;;4915498;29;20449;-54
2022/09/15 06:36:33;;;;;;;8.10;6.30;;;20.20;59.30;;;;;;4923932;29;20511;-54
2022/09/15 06:39:02;;;;;;;5.70;5.20;;;20.20;59.30;;;;;;4914033;29;20481;-54
2022/09/15 06:41:30;;;;;;;6.30;5.40;;;20.20;59.40;;;;;;4922382;29;20481;-54
2022/09/15 06:44:20;;;;;;;5.33;4.87;;;20.10;59.30;;;;;;4931420;29;20473;-54
2022/09/15 06:46:49;;;;;;;5.40;4.90;;;20.10;59.30;;;;;;4900530;29;20639;-54
2022/09/15 06:49:18;;;;;;;5.73;5.13;;;20.20;59.40;;;;;;4928242;29;20484;-54
2022/09/15 06:51:46;;;;;;;5.93;4.90;;;20.10;59.20;;;;;;4916223;29;20544;-52
2022/09/15 06:54:18;;;;;;;8.27;7.20;;;20.10;60.50;;;;;;4925826;29;20449;-53
2022/09/15 06:56:47;;;;;;;7.70;7.00;;;20.10;59.70;;;;;;4913711;29;20208;-55
2022/09/15 06:59:16;;;;;;;9.20;6.27;;;20.10;59.80;;;;;;4928493;29;20480;-54
2022/09/15 07:01:46;;;;;;;10.73;7.70;;;20.10;60.10;;;;;;4914820;29;20472;-55
2022/09/15 07:04:15;;;;;;;5.90;5.30;;;20.10;60.00;;;;;;4930225;29;20464;-53
2022/09/15 07:06:44;;;;;;;9.13;7.13;;;20.10;60.10;;;;;;4932430;29;20962;-52
2022/09/15 07:09:13;;;;;;;8.20;5.93;;;20.00;60.10;;;;;;4915923;29;20492;-53
2022/09/15 07:11:42;;;;;;;7.67;6.20;;;20.10;60.40;;;;;;4925390;29;20483;-53
2022/09/15 07:14:11;;;;;;;6.50;4.90;;;20.00;60.20;;;;;;4935041;29;20510;-53
2022/09/15 07:16:39;;;;;;;6.07;5.50;;;20.10;60.30;;;;;;4935078;29;20476;-51
2022/09/15 07:19:09;;;;;;;9.00;6.70;;;20.10;60.10;;;;;;4935380;29;20451;-52
2022/09/15 07:21:38;;;;;;;7.53;4.93;;;20.00;60.20;;;;;;4930903;29;20504;-52
2022/09/15 07:24:06;;;;;;;6.10;5.50;;;20.10;60.30;;;;;;4934587;29;20437;-54
2022/09/15 07:26:35;;;;;;;7.75;6.30;;;20.10;60.20;;;;;;4928669;28;20870;-54
2022/09/15 07:29:05;;;;;;;5.07;4.50;;;20.00;60.40;;;;;;4935474;29;20236;-55
2022/09/15 07:31:36;;;;;;;7.00;6.27;;;20.00;60.10;;;;;;4931713;29;20571;-54
2022/09/15 07:34:06;;;;;;;5.87;5.27;;;20.00;60.20;;;;;;4919193;29;20452;-54
2022/09/15 07:36:36;;;;;;;8.60;5.27;;;20.00;60.00;;;;;;4931567;29;20500;-54
2022/09/15 07:39:05;;;;;;;7.10;5.23;;;20.00;60.00;;;;;;4919014;29;20468;-55
2022/09/15 07:41:34;;;;;;;5.33;4.40;;;20.00;59.90;;;;;;4916504;29;20487;-55
2022/09/15 07:44:02;;;;;;;4.73;4.23;;;20.00;60.00;;;;;;4918824;29;20451;-54
2022/09/15 07:46:33;;;;;;;5.13;4.63;;;20.00;60.00;;;;;;4918048;29;22591;-55
2022/09/15 07:49:02;;;;;;;5.00;4.50;;;20.00;60.00;;;;;;4916803;29;20503;-55
2022/09/15 07:51:31;;;;;;;13.10;7.43;;;20.00;60.00;;;;;;4934129;29;20479;-54
2022/09/15 07:54:01;;;;;;;13.95;11.23;;;20.00;60.70;;;;;;4915428;29;20476;-52
2022/09/15 07:56:30;;;;;;;11.43;10.03;;;20.00;61.80;;;;;;4923821;29;20224;-54
2022/09/15 07:58:58;;;;;;;10.20;7.80;;;20.00;62.00;;;;;;4930233;29;20449;-54
2022/09/15 08:01:27;;;;;;;10.73;8.50;;;19.90;61.90;;;;;;4918260;29;20645;-54
2022/09/15 08:03:56;;;;;;;7.90;7.10;;;19.90;62.20;;;;;;4918254;29;20504;-54
2022/09/15 08:06:26;;;;;;;11.43;7.27;;;19.90;61.80;;;;;;4916895;29;20480;-55
2022/09/15 08:08:55;;;;;;;9.43;7.03;;;19.90;61.70;;;;;;4935095;29;20448;-54
2022/09/15 08:11:30;;;;;;;6.70;6.07;;;19.90;61.60;;;;;;4894534;29;20520;-55
2022/09/15 08:14:02;;;;;;;6.20;5.60;;;19.90;61.50;;;;;;4933961;29;20441;-55
2022/09/15 08:16:30;;;;;;;9.47;7.10;;;20.00;61.60;;;;;;4931489;29;20535;-55
2022/09/15 08:19:00;;;;;;;9.40;7.00;;;19.90;61.50;;;;;;4916953;29;20436;-54
2022/09/15 08:21:29;;;;;;;8.40;7.23;;;19.90;61.70;;;;;;4932193;29;21046;-54
2022/09/15 08:24:01;;;;;;;10.20;6.77;;;19.90;61.90;;;;;;4918575;29;20441;-53
2022/09/15 08:26:31;;;;;;;10.77;7.83;;;19.90;62.00;;;;;;4916821;29;20567;-53
2022/09/15 08:28:59;;;;;;;8.23;6.77;;;19.90;61.90;;;;;;4935348;29;20952;-52
2022/09/15 08:31:28;;;;;;;7.83;5.50;;;19.80;62.00;;;;;;4917874;29;20465;-53
2022/09/15 08:33:57;;;;;;;7.30;5.20;;;19.80;61.90;;;;;;5043656;23;20594;-68
2022/09/15 08:36:26;;;;;;;8.20;6.90;;;19.90;61.90;;;;;;4882143;29;20905;-65
2022/09/15 08:38:55;;;;;;;6.07;4.73;;;19.90;62.00;;;;;;4891457;29;20544;-66
2022/09/15 08:41:27;;;;;;;6.97;5.40;;;19.80;61.60;;;;;;4899702;29;20482;-67
2022/09/15 08:44:02;;;;;;;8.27;6.40;;;19.90;61.60;;;;;;4893987;29;20881;-67
2022/09/15 08:46:40;;;;;;;6.80;5.20;;;19.90;62.10;;;;;;4878703;29;20484;-67
2022/09/15 08:49:15;;;;;;;6.03;5.30;;;19.90;61.90;;;;;;4896601;29;20477;-65
2022/09/15 08:52:11;;;;;;;7.03;5.53;;;19.80;61.70;;;;;;4903806;29;20504;-66
2022/09/15 08:54:39;;;;;;;6.60;5.90;;;19.90;61.80;;;;;;4908712;29;20464;-67
2022/09/15 08:57:14;;;;;;;5.60;5.03;;;19.90;61.80;;;;;;4901659;29;20521;-66
2022/09/15 08:59:47;;;;;;;7.93;5.57;;;19.80;61.50;;;;;;4893117;29;20541;-74
2022/09/15 09:03:03;;;;;;;7.73;5.50;;;19.90;61.50;;;;;;4890439;29;20478;-67
2022/09/15 09:05:49;;;;;;;5.53;4.60;;;19.90;61.50;;;;;;4878394;29;21353;-66
2022/09/15 09:08:45;;;;;;;8.63;7.33;;;19.90;61.40;;;;;;4903205;29;20469;-69
2022/09/15 09:11:24;;;;;;;5.97;5.37;;;19.90;61.50;;;;;;4864349;29;20498;-66
2022/09/15 09:13:59;;;;;;;6.50;5.80;;;19.90;61.60;;;;;;4888613;29;20522;-68
2022/09/15 09:16:45;;;;;;;6.00;5.40;;;19.80;61.60;;;;;;4891432;29;20644;-68
2022/09/15 09:19:48;;;;;;;5.40;4.87;;;19.80;61.80;;;;;;4874698;29;20538;-68
2022/09/15 09:22:21;;;;;;;8.97;5.60;;;19.80;61.60;;;;;;4885898;29;21046;-68
2022/09/15 09:24:53;;;;;;;6.97;6.27;;;19.80;61.50;;;;;;4897446;29;20800;-68
2022/09/15 09:27:24;;;;;;;6.63;5.93;;;19.80;61.80;;;;;;4897137;29;21013;-66
2022/09/15 09:29:59;;;;;;;9.37;7.27;;;19.80;62.00;;;;;;4899972;29;20477;-67
2022/09/15 09:32:35;;;;;;;8.00;6.63;;;19.80;62.10;;;;;;4891356;29;21040;-66
2022/09/15 09:35:12;;;;;;;10.23;8.20;;;19.80;63.40;;;;;;4895634;29;20560;-68
2022/09/15 09:37:40;;;;;;;7.40;6.47;;;19.80;62.10;;;;;;4894419;29;20482;-66
2022/09/15 09:40:13;;;;;;;6.20;5.60;;;19.80;62.10;;;;;;4894829;29;20577;-66
2022/09/15 09:42:43;;;;;;;6.80;6.07;;;19.80;62.10;;;;;;4870618;29;20458;-68
2022/09/15 09:45:14;;;;;;;7.10;6.30;;;19.80;62.20;;;;;;4868458;29;20565;-67
2022/09/15 09:47:44;;;;;;;6.87;5.73;;;19.80;62.40;;;;;;4883649;29;20466;-71
2022/09/15 09:50:34;;;;;;;7.90;6.77;;;19.80;62.50;;;;;;4892312;29;20446;-68
2022/09/15 09:53:24;;;;;;;5.67;5.17;;;19.80;62.50;;;;;;4883812;29;20439;-72
2022/09/15 09:55:54;;;;;;;6.87;5.00;;;19.70;62.40;;;;;;4877316;29;20541;-71
2022/09/15 09:58:24;;;;;;;6.10;5.50;;;19.70;62.30;;;;;;4892589;29;20466;-73
2022/09/15 10:00:53;;;;;;;7.27;6.60;;;19.70;62.30;;;;;;4893778;29;20465;-68
2022/09/15 10:03:25;;;;;;;7.23;6.27;;;19.70;62.30;;;;;;4886668;29;20442;-73
2022/09/15 10:06:03;;;;;;;5.90;5.40;;;19.70;62.30;;;;;;4875378;29;20485;-68
2022/09/15 10:08:34;;;;;;;7.70;5.83;;;19.70;62.10;;;;;;4899342;29;20481;-66
2022/09/15 10:11:05;;;;;;;8.13;6.33;;;19.70;63.10;;;;;;4888322;29;20477;-67
2022/09/15 10:13:36;;;;;;;7.27;5.70;;;19.70;62.30;;;;;;4910203;29;20954;-69
2022/09/15 10:16:06;;;;;;;5.97;4.90;;;19.80;62.30;;;;;;4903131;29;20470;-65
2022/09/15 10:18:38;;;;;;;5.80;5.30;;;19.70;62.10;;;;;;4895759;29;20533;-66
2022/09/15 10:21:09;;;;;;;6.60;5.47;;;19.70;62.20;;;;;;4899120;29;20462;-66
2022/09/15 10:23:38;;;;;;;6.80;5.40;;;19.70;62.10;;;;;;4885030;29;20938;-68
2022/09/15 10:26:30;;;;;;;7.10;4.97;;;19.70;62.00;;;;;;4871419;29;20500;-67
2022/09/15 10:29:16;;;;;;;5.27;4.60;;;19.70;62.00;;;;;;4870100;29;20471;-68
2022/09/15 10:31:45;;;;;;;8.60;4.80;;;19.70;61.90;;;;;;4886235;29;20470;-67
2022/09/15 10:34:27;;;;;;;5.10;4.63;;;19.70;62.00;;;;;;4903172;29;20474;-66
2022/09/15 10:37:06;;;;;;;4.93;4.43;;;19.70;62.00;;;;;;4897276;29;20469;-72
2022/09/15 10:39:47;;;;;;;4.60;4.20;;;19.70;62.00;;;;;;4895794;29;21190;-73
2022/09/15 10:42:25;;;;;;;4.13;3.73;;;19.70;61.90;;;;;;4883582;29;20800;-74
2022/09/15 10:45:06;;;;;;;6.17;4.83;;;19.70;61.80;;;;;;4887470;29;20529;-73
2022/09/15 10:47:46;;;;;;;4.70;4.20;;;19.70;61.90;;;;;;4896806;29;21066;-72
2022/09/15 10:50:24;;;;;;;8.53;5.40;;;19.70;61.90;;;;;;4891603;29;20451;-73
2022/09/15 10:53:08;;;;;;;7.27;4.70;;;19.70;62.00;;;;;;4893398;29;20443;-72
2022/09/15 10:55:46;;;;;;;4.57;4.17;;;19.70;62.00;;;;;;4885846;29;20558;-73
2022/09/15 10:58:51;;;;;;;5.37;4.30;;;19.70;61.90;;;;;;4891859;29;20533;-72
2022/09/15 11:01:47;;;;;;;5.40;4.87;;;19.70;61.90;;;;;;4869414;29;20510;-73
2022/09/15 11:04:51;;;;;;;6.13;4.00;;;19.70;61.90;;;;;;4893774;29;20979;-73
2022/09/15 11:07:32;;;;;;;3.93;3.60;;;19.70;63.20;;;;;;4894575;29;20510;-73
2022/09/15 11:10:09;;;;;;;4.70;3.40;;;19.70;61.80;;;;;;4891480;29;20486;-73
2022/09/15 11:12:52;;;;;;;4.90;4.40;;;19.70;61.80;;;;;;4891816;29;20446;-72
2022/09/15 11:15:30;;;;;;;3.80;3.50;;;19.70;61.80;;;;;;4872258;29;20514;-73
2022/09/15 11:18:17;;;;;;;5.07;4.57;;;19.70;61.90;;;;;;4872942;29;20574;-72
2022/09/15 11:21:00;;;;;;;3.70;3.33;;;19.70;61.10;;;;;;4889151;29;20577;-72
2022/09/15 11:23:35;;;;;;;6.80;4.10;;;19.70;61.20;;;;;;4893380;29;20454;-73
2022/09/15 11:26:07;;;;;;;4.80;4.30;;;19.70;61.30;;;;;;4888653;29;20485;-74
2022/09/15 11:28:40;;;;;;;3.90;3.50;;;19.70;61.30;;;;;;4885905;29;20482;-73
2022/09/15 11:31:14;;;;;;;4.00;3.20;;;19.70;61.30;;;;;;4873499;29;20483;-67
2022/09/15 11:33:48;;;;;;;3.13;2.83;;;19.70;61.30;;;;;;4877565;29;20961;-65
2022/09/15 11:36:21;;;;;;;5.60;3.40;;;19.70;61.20;;;;;;4872732;29;20558;-68
2022/09/15 11:38:56;;;;;;;3.57;3.27;;;19.70;61.30;;;;;;4891801;29;20503;-69
2022/09/15 11:41:33;;;;;;;6.67;3.80;;;19.70;61.30;;;;;;4890593;29;20509;-69
2022/09/15 11:44:16;;;;;;;4.67;3.83;;;19.70;61.30;;;;;;4877556;29;20541;-67
2022/09/15 11:47:02;;;;;;;4.03;3.63;;;19.70;61.20;;;;;;4867768;29;20474;-67
2022/09/15 11:49:38;;;;;;;3.50;3.20;;;19.70;61.10;;;;;;4880888;29;20502;-65
2022/09/15 11:52:19;;;;;;;4.60;3.57;;;19.80;61.30;;;;;;4858913;29;20453;-66
2022/09/15 11:54:55;;;;;;;3.17;2.87;;;19.70;61.10;;;;;;4890368;29;21012;-67
2022/09/15 11:57:28;;;;;;;7.63;3.70;;;19.70;60.80;;;;;;4894999;29;20449;-68
2022/09/15 12:00:00;;;;;;;3.60;3.00;;;19.70;61.00;;;;;;4887592;29;20447;-67
2022/09/15 12:02:41;;;;;;;4.13;3.73;;;19.70;61.00;;;;;;4901906;29;20434;-66
2022/09/15 12:05:15;;;;;;;4.73;3.73;;;19.70;61.00;;;;;;4894940;29;20883;-67
2022/09/15 12:07:50;;;;;;;4.00;3.23;;;19.70;60.60;;;;;;4883762;29;21009;-68
2022/09/15 12:10:25;;;;;;;5.03;3.53;;;19.70;60.70;;;;;;4882757;29;20478;-67
2022/09/15 12:12:55;;;;;;;4.00;3.60;;;19.70;60.80;;;;;;4894918;29;20450;-67
2022/09/15 12:15:26;;;;;;;3.57;2.93;;;19.70;60.60;;;;;;4893118;29;20506;-67
2022/09/15 12:18:09;;;;;;;4.10;3.40;;;19.70;60.60;;;;;;4895733;29;20450;-68
2022/09/15 12:21:02;;;;;;;3.73;3.33;;;19.70;60.60;;;;;;4892958;29;20486;-68
2022/09/15 12:23:37;;;;;;;3.10;2.80;;;19.70;60.70;;;;;;4896177;29;20878;-66
2022/09/15 12:26:16;;;;;;;3.40;3.00;;;19.70;60.60;;;;;;4891495;29;20513;-68
2022/09/15 12:28:57;;;;;;;3.90;3.40;;;19.70;60.70;;;;;;4878573;29;20488;-68
2022/09/15 12:31:31;;;;;;;4.53;3.20;;;19.70;60.70;;;;;;4903610;29;20844;-66
2022/09/15 12:34:02;;;;;;;3.20;2.90;;;19.70;60.60;;;;;;4873010;29;20470;-67
2022/09/15 12:36:45;;;;;;;3.70;2.83;;;19.70;60.60;;;;;;4880516;29;20478;-67
2022/09/15 12:39:39;;;;;;;3.20;2.93;;;19.70;60.70;;;;;;4877995;29;20505;-66
2022/09/15 12:42:16;;;;;;;3.00;2.80;;;19.70;60.80;;;;;;4857244;29;20489;-69
2022/09/15 12:44:48;;;;;;;2.83;2.63;;;19.70;60.80;;;;;;4887271;29;20476;-67
2022/09/15 12:47:21;;;;;;;6.07;2.90;;;19.70;60.80;;;;;;4900000;29;20516;-68
2022/09/15 12:49:51;;;;;;;3.37;2.77;;;19.70;60.70;;;;;;4875266;29;20482;-67
2022/09/15 12:52:22;;;;;;;3.23;2.67;;;19.70;60.60;;;;;;4893824;29;20446;-68
2022/09/15 12:54:53;;;;;;;3.37;2.90;;;19.70;60.70;;;;;;4898963;29;20462;-65
2022/09/15 12:57:26;;;;;;;2.77;2.30;;;19.70;60.50;;;;;;4871421;29;20822;-68
2022/09/15 13:00:26;;;;;;;4.10;3.00;;;19.70;60.30;;;;;;4887068;29;20953;-68
2022/09/15 13:02:55;;;;;;;3.67;3.10;;;19.70;60.00;;;;;;4889140;29;20552;-67
2022/09/15 13:05:57;;;;;;;5.60;2.90;;;19.70;60.80;;;;;;4892344;29;20313;-68
2022/09/15 13:08:53;;;;;;;3.27;2.73;;;19.70;60.50;;;;;;4856675;29;20483;-66
2022/09/15 13:11:37;;;;;;;3.00;2.70;;;19.70;60.40;;;;;;4867906;29;20900;-68
2022/09/15 13:14:13;;;;;;;6.57;3.20;;;19.70;60.40;;;;;;4884330;29;20519;-68
2022/09/15 13:16:53;;;;;;;3.13;2.23;;;19.70;60.50;;;;;;4876172;29;20486;-68